Torre De Belem — CSIO — position and weather

sailwx.info

Track history (hours):
 
Tides and Currents Weather Stations Pressure Air Temp Water Temp Dewpoint Dewpoint Depression Visibility Wind Speed Wind Dir Waves Ship Positions

Torre De Belem

Last reported at 2014-Sep-01 09:33 UTC. Time now 2014-Sep-01 11:44 UTC.
Position N 38°41' W 009°12'.

Length 13 m; draft 1.1 m.

Type: Pilot. MMSI: 263671850.

Date/timePositionNaut miles runAvg speedWind from/ knotsBaromVisibWave heightAir tempDewpointWater temp
2014-Sep-01 09:33N 38°41' W 009°12'5 4.7
2014-Sep-01 08:23N 38°40' W 009°19'4 5.0
2014-Sep-01 07:33N 38°41' W 009°13'1 0.7
2014-Sep-01 06:33N 38°41' W 009°12'0 0.0
2014-Aug-31 17:33N 38°41' W 009°13'1 0.7
2014-Aug-31 15:31N 38°42' W 009°14'0 0.0
2014-Aug-31 13:27N 38°42' W 009°14'3 0.7
2014-Aug-31 09:34N 38°41' W 009°11'3 1.9
2014-Aug-31 08:11N 38°42' W 009°14'1 2.0
2014-Aug-31 07:33N 38°41' W 009°13'1 0.8
2014-Aug-31 06:04N 38°42' W 009°14'0 0.0
2014-Aug-31 02:28N 38°42' W 009°14'0 0.0
2014-Aug-30 23:10N 38°42' W 009°14'0 0.1
2014-Aug-30 22:32N 38°42' W 009°14'0 0.1
2014-Aug-30 21:25N 38°42' W 009°14'0 0.0
2014-Aug-30 20:30N 38°42' W 009°14'0 0.0
2014-Aug-30 18:26N 38°42' W 009°14'0 0.5
2014-Aug-30 17:33N 38°41' W 009°14'0 0.2
2014-Aug-30 15:19N 38°42' W 009°14'0 0.0
2014-Aug-30 14:33N 38°42' W 009°14'0 0.0
2014-Aug-30 13:29N 38°42' W 009°14'0 0.0
2014-Aug-30 12:20N 38°42' W 009°14'0 0.6
2014-Aug-30 11:33N 38°41' W 009°14'0 0.4
2014-Aug-30 10:31N 38°42' W 009°14'0 0.0
2014-Aug-30 08:32N 38°42' W 009°14'0 0.0
2014-Aug-30 07:23N 38°42' W 009°14'0 0.0
2014-Aug-30 06:33N 38°42' W 009°14'0 0.0
2014-Aug-30 05:30N 38°42' W 009°14'0 0.0
2014-Aug-30 03:29N 38°42' W 009°14'0 0.0
2014-Aug-30 02:30N 38°42' W 009°14'0 0.0
2014-Aug-30 00:31N 38°42' W 009°14'2 0.1
2014-Aug-29 13:33N 38°41' W 009°16'2 0.2
2014-Aug-29 06:32N 38°42' W 009°14'0 0.0
2014-Aug-29 05:31N 38°42' W 009°14'0 0.0
2014-Aug-29 04:32N 38°42' W 009°14'0 0.0
2014-Aug-29 03:33N 38°42' W 009°14'0 0.0
2014-Aug-29 02:33N 38°42' W 009°14'0 0.0
2014-Aug-29 01:31N 38°42' W 009°14'1 1.1
2014-Aug-29 00:33N 38°41' W 009°13'1 0.5
2014-Aug-28 22:27N 38°42' W 009°14'0 0.0
2014-Aug-28 21:22N 38°42' W 009°14'0 0.0
2014-Aug-28 20:24N 38°42' W 009°14'1 1.6
2014-Aug-28 19:33N 38°41' W 009°12'1 0.1
2014-Aug-28 07:27N 38°42' W 009°14'0 0.0
2014-Aug-28 06:05N 38°42' W 009°14'0 0.0
2014-Aug-28 05:30N 38°42' W 009°14'0 0.0
2014-Aug-28 03:17N 38°42' W 009°14'0 0.0
2014-Aug-28 02:32N 38°42' W 009°14'0 0.0
2014-Aug-28 01:33N 38°42' W 009°14'0 0.0
2014-Aug-28 00:31N 38°42' W 009°14'0 0.0
2014-Aug-27 23:17N 38°42' W 009°14'0 0.5
2014-Aug-27 22:33N 38°41' W 009°14'0 0.4
2014-Aug-27 21:33N 38°42' W 009°14'0 0.0
2014-Aug-27 19:08N 38°42' W 009°14'0 0.0
2014-Aug-27 18:32N 38°42' W 009°14'0 0.0
2014-Aug-27 15:05N 38°42' W 009°14'3 3.1
2014-Aug-27 14:04N 38°41' W 009°18'3 0.3
2014-Aug-27 05:04N 38°42' W 009°14'0 0.0
2014-Aug-27 02:19N 38°42' W 009°14'0 0.0
2014-Aug-27 01:33N 38°42' W 009°14'0 0.0
2014-Aug-26 21:18N 38°42' W 009°14'0 0.0
2014-Aug-26 20:28N 38°42' W 009°14'0 0.0
2014-Aug-26 18:22N 38°42' W 009°14'1 0.7
2014-Aug-26 17:33N 38°41' W 009°14'1 0.5
2014-Aug-26 16:23N 38°42' W 009°14'0 0.0
2014-Aug-26 15:14N 38°42' W 009°14'0 0.0
2014-Aug-26 14:08N 38°42' W 009°14'0 0.0
2014-Aug-26 13:32N 38°42' W 009°14'0 0.0
2014-Aug-26 12:22N 38°42' W 009°14'0 0.0
2014-Aug-26 08:06N 38°42' W 009°14'0 0.0
2014-Aug-26 07:15N 38°42' W 009°14'0 0.0
2014-Aug-26 06:25N 38°42' W 009°14'0 0.0
2014-Aug-26 04:25N 38°42' W 009°14'0 0.0
2014-Aug-25 23:09N 38°42' W 009°14'0 0.0
2014-Aug-25 22:25N 38°42' W 009°14'0 0.0
2014-Aug-25 21:30N 38°42' W 009°14'0 0.0
2014-Aug-25 19:33N 38°42' W 009°14'0 0.0
2014-Aug-25 18:32N 38°42' W 009°14'0 0.0
2014-Aug-25 17:32N 38°42' W 009°14'0 0.0
2014-Aug-25 16:33N 38°42' W 009°14'0 0.0
2014-Aug-25 15:25N 38°42' W 009°14'0 0.0
2014-Aug-25 14:21N 38°42' W 009°14'1 0.2
2014-Aug-25 09:33N 38°41' W 009°15'3 2.9
2014-Aug-25 08:33N 38°41' W 009°12'1 0.6
2014-Aug-25 07:33N 38°41' W 009°12'2 1.2
2014-Aug-25 06:10N 38°42' W 009°14'0 0.0
2014-Aug-25 05:30N 38°42' W 009°14'0 0.0
2014-Aug-25 04:31N 38°42' W 009°14'0 0.0
2014-Aug-25 03:33N 38°42' W 009°14'0 0.0
2014-Aug-25 02:33N 38°42' W 009°14'0 0.0
2014-Aug-24 23:23N 38°42' W 009°14'0 0.0
2014-Aug-24 22:07N 38°42' W 009°14'1 1.2
2014-Aug-24 21:33N 38°41' W 009°14'1 0.0
2014-Aug-23 22:21N 38°42' W 009°14'1 0.4
2014-Aug-23 20:33N 38°41' W 009°13'1 0.6
2014-Aug-23 19:19N 38°42' W 009°14'0 0.0
2014-Aug-23 03:26N 38°42' W 009°14'0 0.0
2014-Aug-23 01:33N 38°42' W 009°14'0 0.0
2014-Aug-23 00:33N 38°42' W 009°14'0 0.0
2014-Aug-22 23:32N 38°42' W 009°14'0 0.0
2014-Aug-22 22:26N 38°42' W 009°14'  
Track history (hours):
 
Tides and Currents Weather Stations Pressure Air Temp Water Temp Dewpoint Dewpoint Depression Visibility Wind Speed Wind Dir Waves Ship Positions

Torre De Belem

Last reported at 2014-Sep-01 09:33 UTC. Time now 2014-Sep-01 11:44 UTC.
Position N 38°41' W 009°12'.

Length 13 m; draft 1.1 m.

Type: Pilot. MMSI: 263671850.

Date/timePositionNaut miles runAvg speedWind from/ knotsBaromVisibWave heightAir tempDewpointWater temp
2014-Sep-01 09:33N 38°41' W 009°12'5 4.7
2014-Sep-01 08:23N 38°40' W 009°19'4 5.0
2014-Sep-01 07:33N 38°41' W 009°13'1 0.7
2014-Sep-01 06:33N 38°41' W 009°12'0 0.0
2014-Aug-31 17:33N 38°41' W 009°13'1 0.7
2014-Aug-31 15:31N 38°42' W 009°14'0 0.0
2014-Aug-31 13:27N 38°42' W 009°14'3 0.7
2014-Aug-31 09:34N 38°41' W 009°11'3 1.9
2014-Aug-31 08:11N 38°42' W 009°14'1 2.0
2014-Aug-31 07:33N 38°41' W 009°13'1 0.8
2014-Aug-31 06:04N 38°42' W 009°14'0 0.0
2014-Aug-31 02:28N 38°42' W 009°14'0 0.0
2014-Aug-30 23:10N 38°42' W 009°14'0 0.1
2014-Aug-30 22:32N 38°42' W 009°14'0 0.1
2014-Aug-30 21:25N 38°42' W 009°14'0 0.0
2014-Aug-30 20:30N 38°42' W 009°14'0 0.0
2014-Aug-30 18:26N 38°42' W 009°14'0 0.5
2014-Aug-30 17:33N 38°41' W 009°14'0 0.2
2014-Aug-30 15:19N 38°42' W 009°14'0 0.0
2014-Aug-30 14:33N 38°42' W 009°14'0 0.0
2014-Aug-30 13:29N 38°42' W 009°14'0 0.0
2014-Aug-30 12:20N 38°42' W 009°14'0 0.6
2014-Aug-30 11:33N 38°41' W 009°14'0 0.4
2014-Aug-30 10:31N 38°42' W 009°14'0 0.0
2014-Aug-30 08:32N 38°42' W 009°14'0 0.0
2014-Aug-30 07:23N 38°42' W 009°14'0 0.0
2014-Aug-30 06:33N 38°42' W 009°14'0 0.0
2014-Aug-30 05:30N 38°42' W 009°14'0 0.0
2014-Aug-30 03:29N 38°42' W 009°14'0 0.0
2014-Aug-30 02:30N 38°42' W 009°14'0 0.0
2014-Aug-30 00:31N 38°42' W 009°14'2 0.1
2014-Aug-29 13:33N 38°41' W 009°16'2 0.2
2014-Aug-29 06:32N 38°42' W 009°14'0 0.0
2014-Aug-29 05:31N 38°42' W 009°14'0 0.0
2014-Aug-29 04:32N 38°42' W 009°14'0 0.0
2014-Aug-29 03:33N 38°42' W 009°14'0 0.0
2014-Aug-29 02:33N 38°42' W 009°14'0 0.0
2014-Aug-29 01:31N 38°42' W 009°14'1 1.1
2014-Aug-29 00:33N 38°41' W 009°13'1 0.5
2014-Aug-28 22:27N 38°42' W 009°14'0 0.0
2014-Aug-28 21:22N 38°42' W 009°14'0 0.0
2014-Aug-28 20:24N 38°42' W 009°14'1 1.6
2014-Aug-28 19:33N 38°41' W 009°12'1 0.1
2014-Aug-28 07:27N 38°42' W 009°14'0 0.0
2014-Aug-28 06:05N 38°42' W 009°14'0 0.0
2014-Aug-28 05:30N 38°42' W 009°14'0 0.0
2014-Aug-28 03:17N 38°42' W 009°14'0 0.0
2014-Aug-28 02:32N 38°42' W 009°14'0 0.0
2014-Aug-28 01:33N 38°42' W 009°14'0 0.0
2014-Aug-28 00:31N 38°42' W 009°14'0 0.0
2014-Aug-27 23:17N 38°42' W 009°14'0 0.5
2014-Aug-27 22:33N 38°41' W 009°14'0 0.4
2014-Aug-27 21:33N 38°42' W 009°14'0 0.0
2014-Aug-27 19:08N 38°42' W 009°14'0 0.0
2014-Aug-27 18:32N 38°42' W 009°14'0 0.0
2014-Aug-27 15:05N 38°42' W 009°14'3 3.1
2014-Aug-27 14:04N 38°41' W 009°18'3 0.3
2014-Aug-27 05:04N 38°42' W 009°14'0 0.0
2014-Aug-27 02:19N 38°42' W 009°14'0 0.0
2014-Aug-27 01:33N 38°42' W 009°14'0 0.0
2014-Aug-26 21:18N 38°42' W 009°14'0 0.0
2014-Aug-26 20:28N 38°42' W 009°14'0 0.0
2014-Aug-26 18:22N 38°42' W 009°14'1 0.7
2014-Aug-26 17:33N 38°41' W 009°14'1 0.5
2014-Aug-26 16:23N 38°42' W 009°14'0 0.0
2014-Aug-26 15:14N 38°42' W 009°14'0 0.0
2014-Aug-26 14:08N 38°42' W 009°14'0 0.0
2014-Aug-26 13:32N 38°42' W 009°14'0 0.0
2014-Aug-26 12:22N 38°42' W 009°14'0 0.0
2014-Aug-26 08:06N 38°42' W 009°14'0 0.0
2014-Aug-26 07:15N 38°42' W 009°14'0 0.0
2014-Aug-26 06:25N 38°42' W 009°14'0 0.0
2014-Aug-26 04:25N 38°42' W 009°14'0 0.0
2014-Aug-25 23:09N 38°42' W 009°14'0 0.0
2014-Aug-25 22:25N 38°42' W 009°14'0 0.0
2014-Aug-25 21:30N 38°42' W 009°14'0 0.0
2014-Aug-25 19:33N 38°42' W 009°14'0 0.0
2014-Aug-25 18:32N 38°42' W 009°14'0 0.0
2014-Aug-25 17:32N 38°42' W 009°14'0 0.0
2014-Aug-25 16:33N 38°42' W 009°14'0 0.0
2014-Aug-25 15:25N 38°42' W 009°14'0 0.0
2014-Aug-25 14:21N 38°42' W 009°14'1 0.2
2014-Aug-25 09:33N 38°41' W 009°15'3 2.9
2014-Aug-25 08:33N 38°41' W 009°12'1 0.6
2014-Aug-25 07:33N 38°41' W 009°12'2 1.2
2014-Aug-25 06:10N 38°42' W 009°14'0 0.0
2014-Aug-25 05:30N 38°42' W 009°14'0 0.0
2014-Aug-25 04:31N 38°42' W 009°14'0 0.0
2014-Aug-25 03:33N 38°42' W 009°14'0 0.0
2014-Aug-25 02:33N 38°42' W 009°14'0 0.0
2014-Aug-24 23:23N 38°42' W 009°14'0 0.0
2014-Aug-24 22:07N 38°42' W 009°14'1 1.2
2014-Aug-24 21:33N 38°41' W 009°14'1 0.0
2014-Aug-23 22:21N 38°42' W 009°14'1 0.4
2014-Aug-23 20:33N 38°41' W 009°13'1 0.6
2014-Aug-23 19:19N 38°42' W 009°14'0 0.0
2014-Aug-23 03:26N 38°42' W 009°14'0 0.0
2014-Aug-23 01:33N 38°42' W 009°14'0 0.0
2014-Aug-23 00:33N 38°42' W 009°14'0 0.0
2014-Aug-22 23:32N 38°42' W 009°14'0 0.0
2014-Aug-22 22:26N 38°42' W 009°14'  

Dump ship's entire track history